Morristown, Minnesota
Current Conditions -  °F | °C
As of 10:14 AM on Wednesday 28 Jan 2015 (Local Time) from KFBL Reporting Station
Haze Haze  
Wind Chill: 17°   Ceiling: 500
Heat Index: 28°   Visibility: 2mi
Dew Point: 27°   Wind: 14mph
Humidity: 93%   Direction: 130°SE
Pressure: 29.95"   Gusts: 21mph
Location:  44.23°N, 93.44°W
Report Text: KFBL 281614Z AUTO 13012G18KT 2SM BR OVC005 M02/M03 A2995 RMK AO2
Loading
Personal Weather Stations






























Interactive Weather Map New forecast layout! Learn more

10-Day Weather Forecast

Advertisements
Track Severe Weather on mobile